sensor_id;sensor_type;location;lat;lon;timestamp;pressure;altitude;pressure_sealevel;temperature;humidity
51460;BME280;37534;39.772;2.718;2024-03-29T00:00:25;100193.06;;;17.13;100.00
51460;BME280;37534;39.772;2.718;2024-03-29T00:02:50;100175.94;;;17.09;100.00
51460;BME280;37534;39.772;2.718;2024-03-29T00:05:16;100191.56;;;17.09;100.00
51460;BME280;37534;39.772;2.718;2024-03-29T00:07:41;100197.81;;;17.06;100.00
51460;BME280;37534;39.772;2.718;2024-03-29T00:10:07;100172.50;;;16.94;100.00
51460;BME280;37534;39.772;2.718;2024-03-29T00:12:33;100185.59;;;16.92;100.00
51460;BME280;37534;39.772;2.718;2024-03-29T00:14:58;100173.69;;;16.88;100.00
51460;BME280;37534;39.772;2.718;2024-03-29T00:17:24;100170.34;;;16.86;100.00
51460;BME280;37534;39.772;2.718;2024-03-29T00:19:55;100104.00;;;16.49;100.00
51460;BME280;37534;39.772;2.718;2024-03-29T00:22:21;100167.66;;;16.88;100.00
51460;BME280;37534;39.772;2.718;2024-03-29T00:24:46;100146.69;;;16.75;100.00
51460;BME280;37534;39.772;2.718;2024-03-29T00:27:12;100156.59;;;16.84;100.00
51460;BME280;37534;39.772;2.718;2024-03-29T00:29:37;100184.88;;;16.90;100.00
51460;BME280;37534;39.772;2.718;2024-03-29T00:32:03;100128.28;;;16.64;100.00
51460;BME280;37534;39.772;2.718;2024-03-29T00:34:29;100145.03;;;16.74;100.00
51460;BME280;37534;39.772;2.718;2024-03-29T00:36:55;100146.88;;;16.72;100.00
51460;BME280;37534;39.772;2.718;2024-03-29T00:39:20;100141.13;;;16.67;100.00
51460;BME280;37534;39.772;2.718;2024-03-29T00:41:46;100180.28;;;16.80;100.00
51460;BME280;37534;39.772;2.718;2024-03-29T00:44:11;100197.94;;;16.75;100.00
51460;BME280;37534;39.772;2.718;2024-03-29T00:46:37;100137.13;;;16.61;100.00
51460;BME280;37534;39.772;2.718;2024-03-29T00:49:02;100169.38;;;16.73;100.00
51460;BME280;37534;39.772;2.718;2024-03-29T00:51:28;100153.41;;;16.65;100.00
51460;BME280;37534;39.772;2.718;2024-03-29T00:53:54;100171.41;;;16.68;100.00
51460;BME280;37534;39.772;2.718;2024-03-29T00:56:20;100146.41;;;16.51;100.00
51460;BME280;37534;39.772;2.718;2024-03-29T00:58:46;100159.91;;;16.58;100.00
51460;BME280;37534;39.772;2.718;2024-03-29T01:01:11;100158.03;;;16.60;100.00
51460;BME280;37534;39.772;2.718;2024-03-29T01:03:37;100155.69;;;16.55;100.00
51460;BME280;37534;39.772;2.718;2024-03-29T01:06:03;100156.34;;;16.59;100.00
51460;BME280;37534;39.772;2.718;2024-03-29T01:08:31;100134.31;;;16.64;100.00
51460;BME280;37534;39.772;2.718;2024-03-29T01:10:57;100134.50;;;16.61;100.00
51460;BME280;37534;39.772;2.718;2024-03-29T01:13:23;100128.09;;;16.67;100.00
51460;BME280;37534;39.772;2.718;2024-03-29T01:15:48;100135.91;;;16.67;100.00
51460;BME280;37534;39.772;2.718;2024-03-29T01:18:14;100118.25;;;16.58;100.00
51460;BME280;37534;39.772;2.718;2024-03-29T01:20:39;100128.09;;;16.67;100.00
51460;BME280;37534;39.772;2.718;2024-03-29T01:23:05;100110.78;;;16.66;100.00
51460;BME280;37534;39.772;2.718;2024-03-29T01:25:30;100087.63;;;16.61;100.00
51460;BME280;37534;39.772;2.718;2024-03-29T01:27:56;100120.44;;;16.78;100.00
51460;BME280;37534;39.772;2.718;2024-03-29T01:30:22;100078.03;;;16.62;100.00
51460;BME280;37534;39.772;2.718;2024-03-29T01:32:47;100073.66;;;16.62;100.00
51460;BME280;37534;39.772;2.718;2024-03-29T01:35:13;100093.28;;;16.68;100.00
51460;BME280;37534;39.772;2.718;2024-03-29T01:37:39;100068.94;;;16.69;100.00
51460;BME280;37534;39.772;2.718;2024-03-29T01:40:05;100056.09;;;16.51;100.00
51460;BME280;37534;39.772;2.718;2024-03-29T01:42:30;100084.38;;;16.72;100.00
51460;BME280;37534;39.772;2.718;2024-03-29T01:44:56;100065.75;;;16.78;100.00
51460;BME280;37534;39.772;2.718;2024-03-29T01:47:22;100062.22;;;16.79;100.00
51460;BME280;37534;39.772;2.718;2024-03-29T01:49:48;100073.22;;;16.84;100.00
51460;BME280;37534;39.772;2.718;2024-03-29T01:52:17;100051.97;;;16.76;100.00
51460;BME280;37534;39.772;2.718;2024-03-29T01:54:45;100079.09;;;16.88;100.00
51460;BME280;37534;39.772;2.718;2024-03-29T01:57:12;100070.41;;;16.87;100.00
51460;BME280;37534;39.772;2.718;2024-03-29T01:59:40;100049.66;;;16.86;100.00
51460;BME280;37534;39.772;2.718;2024-03-29T02:02:08;100062.22;;;16.94;100.00
51460;BME280;37534;39.772;2.718;2024-03-29T02:04:35;100058.25;;;16.88;100.00
51460;BME280;37534;39.772;2.718;2024-03-29T02:07:02;100062.22;;;16.94;100.00
51460;BME280;37534;39.772;2.718;2024-03-29T02:09:29;100065.06;;;17.03;100.00
51460;BME280;37534;39.772;2.718;2024-03-29T02:11:54;100053.00;;;17.02;100.00
51460;BME280;37534;39.772;2.718;2024-03-29T02:14:20;100054.56;;;17.05;100.00
51460;BME280;37534;39.772;2.718;2024-03-29T02:16:46;100029.34;;;16.91;100.00
51460;BME280;37534;39.772;2.718;2024-03-29T02:19:11;100056.06;;;17.09;100.00
51460;BME280;37534;39.772;2.718;2024-03-29T02:21:41;100050.84;;;17.09;100.00
51460;BME280;37534;39.772;2.718;2024-03-29T02:24:08;100060.84;;;17.15;100.00
51460;BME280;37534;39.772;2.718;2024-03-29T02:26:35;100052.31;;;17.13;100.00
51460;BME280;37534;39.772;2.718;2024-03-29T02:29:07;100021.25;;;16.96;100.00
51460;BME280;37534;39.772;2.718;2024-03-29T02:31:34;100022.53;;;17.03;99.38
51460;BME280;37534;39.772;2.718;2024-03-29T02:34:00;100035.19;;;17.09;100.00
51460;BME280;37534;39.772;2.718;2024-03-29T02:36:26;100045.84;;;17.19;99.60
51460;BME280;37534;39.772;2.718;2024-03-29T02:38:51;100030.50;;;17.14;100.00
51460;BME280;37534;39.772;2.718;2024-03-29T02:41:18;100033.88;;;17.02;100.00
51460;BME280;37534;39.772;2.718;2024-03-29T02:43:43;100019.28;;;16.99;100.00
51460;BME280;37534;39.772;2.718;2024-03-29T02:46:09;100021.41;;;17.07;100.00
51460;BME280;37534;39.772;2.718;2024-03-29T02:48:35;100010.19;;;16.92;100.00
51460;BME280;37534;39.772;2.718;2024-03-29T02:51:01;100031.81;;;17.07;100.00
51460;BME280;37534;39.772;2.718;2024-03-29T02:53:26;100038.81;;;17.06;100.00
51460;BME280;37534;39.772;2.718;2024-03-29T02:55:52;100040.19;;;17.12;100.00
51460;BME280;37534;39.772;2.718;2024-03-29T02:58:17;100012.72;;;16.94;100.00
51460;BME280;37534;39.772;2.718;2024-03-29T03:00:43;100025.56;;;16.97;100.00
51460;BME280;37534;39.772;2.718;2024-03-29T03:03:09;100029.91;;;16.96;100.00
51460;BME280;37534;39.772;2.718;2024-03-29T03:05:34;100018.66;;;16.96;100.00
51460;BME280;37534;39.772;2.718;2024-03-29T03:08:00;100011.03;;;16.92;100.00
51460;BME280;37534;39.772;2.718;2024-03-29T03:10:47;100008.44;;;16.92;100.00
51460;BME280;37534;39.772;2.718;2024-03-29T03:13:22;100000.69;;;16.91;100.00
51460;BME280;37534;39.772;2.718;2024-03-29T03:15:48;100022.53;;;17.03;100.00
51460;BME280;37534;39.772;2.718;2024-03-29T03:18:13;99984.34;;;16.89;100.00
51460;BME280;37534;39.772;2.718;2024-03-29T03:20:39;99996.72;;;16.85;100.00
51460;BME280;37534;39.772;2.718;2024-03-29T03:23:04;100008.66;;;16.89;100.00
51460;BME280;37534;39.772;2.718;2024-03-29T03:25:30;100003.63;;;16.86;100.00
51460;BME280;37534;39.772;2.718;2024-03-29T03:27:56;99999.50;;;16.97;100.00
51460;BME280;37534;39.772;2.718;2024-03-29T03:30:21;100010.09;;;16.94;100.00
51460;BME280;37534;39.772;2.718;2024-03-29T03:32:47;100005.81;;;16.92;100.00
51460;BME280;37534;39.772;2.718;2024-03-29T03:35:13;100004.50;;;17.00;100.00
51460;BME280;37534;39.772;2.718;2024-03-29T03:37:39;99985.06;;;16.91;100.00
51460;BME280;37534;39.772;2.718;2024-03-29T03:40:05;99975.28;;;16.95;100.00
51460;BME280;37534;39.772;2.718;2024-03-29T03:42:32;99973.28;;;16.85;100.00
51460;BME280;37534;39.772;2.718;2024-03-29T03:44:58;99952.44;;;16.71;100.00
51460;BME280;37534;39.772;2.718;2024-03-29T03:47:23;99983.09;;;16.95;100.00
51460;BME280;37534;39.772;2.718;2024-03-29T03:49:49;99984.53;;;16.86;100.00
51460;BME280;37534;39.772;2.718;2024-03-29T03:52:15;99985.28;;;16.88;100.00
51460;BME280;37534;39.772;2.718;2024-03-29T03:54:40;99974.00;;;16.87;100.00
51460;BME280;37534;39.772;2.718;2024-03-29T03:57:06;99984.66;;;16.84;100.00
51460;BME280;37534;39.772;2.718;2024-03-29T03:59:31;99993.88;;;17.03;100.00
51460;BME280;37534;39.772;2.718;2024-03-29T04:01:57;99990.91;;;16.95;100.00
51460;BME280;37534;39.772;2.718;2024-03-29T04:04:23;99996.91;;;16.97;100.00
51460;BME280;37534;39.772;2.718;2024-03-29T04:06:49;99973.94;;;17.02;100.00
51460;BME280;37534;39.772;2.718;2024-03-29T04:09:14;99971.34;;;17.02;100.00
51460;BME280;37534;39.772;2.718;2024-03-29T04:11:43;99986.00;;;17.17;100.00
51460;BME280;37534;39.772;2.718;2024-03-29T04:14:09;99985.28;;;17.28;100.00
51460;BME280;37534;39.772;2.718;2024-03-29T04:16:34;99999.38;;;17.25;100.00
51460;BME280;37534;39.772;2.718;2024-03-29T04:19:00;99969.00;;;17.12;100.00
51460;BME280;37534;39.772;2.718;2024-03-29T04:21:26;99982.38;;;17.20;100.00
51460;BME280;37534;39.772;2.718;2024-03-29T04:23:52;99992.00;;;17.32;100.00
51460;BME280;37534;39.772;2.718;2024-03-29T04:26:17;100008.47;;;17.33;100.00
51460;BME280;37534;39.772;2.718;2024-03-29T04:28:43;99968.09;;;17.25;100.00
51460;BME280;37534;39.772;2.718;2024-03-29T04:31:08;99979.78;;;17.33;100.00
51460;BME280;37534;39.772;2.718;2024-03-29T04:33:34;99982.78;;;17.26;100.00
51460;BME280;37534;39.772;2.718;2024-03-29T04:36:05;99979.25;;;17.27;100.00
51460;BME280;37534;39.772;2.718;2024-03-29T04:38:31;99981.88;;;17.27;100.00
51460;BME280;37534;39.772;2.718;2024-03-29T04:40:58;99957.94;;;17.08;100.00
51460;BME280;37534;39.772;2.718;2024-03-29T04:43:28;99944.53;;;17.27;100.00
51460;BME280;37534;39.772;2.718;2024-03-29T04:46:13;99952.22;;;17.28;100.00
51460;BME280;37534;39.772;2.718;2024-03-29T04:48:40;99965.94;;;17.32;100.00
51460;BME280;37534;39.772;2.718;2024-03-29T04:51:11;99969.47;;;17.31;100.00
51460;BME280;37534;39.772;2.718;2024-03-29T04:53:38;99956.09;;;17.23;100.00
51460;BME280;37534;39.772;2.718;2024-03-29T04:56:04;99965.41;;;17.27;100.00
51460;BME280;37534;39.772;2.718;2024-03-29T04:58:30;99963.63;;;17.40;100.00
51460;BME280;37534;39.772;2.718;2024-03-29T05:00:56;99960.81;;;17.31;99.99
51460;BME280;37534;39.772;2.718;2024-03-29T05:03:23;99969.25;;;17.34;100.00
51460;BME280;37534;39.772;2.718;2024-03-29T05:05:52;99931.59;;;17.25;100.00
51460;BME280;37534;39.772;2.718;2024-03-29T05:08:18;99956.22;;;17.34;100.00
51460;BME280;37534;39.772;2.718;2024-03-29T05:10:45;99936.09;;;17.23;100.00
51460;BME280;37534;39.772;2.718;2024-03-29T05:13:11;99944.28;;;17.17;100.00
51460;BME280;37534;39.772;2.718;2024-03-29T05:15:37;99949.69;;;17.14;100.00
51460;BME280;37534;39.772;2.718;2024-03-29T05:18:03;99928.00;;;17.01;100.00
51460;BME280;37534;39.772;2.718;2024-03-29T05:20:30;99935.56;;;17.18;100.00
51460;BME280;37534;39.772;2.718;2024-03-29T05:22:55;99951.81;;;17.22;100.00
51460;BME280;37534;39.772;2.718;2024-03-29T05:25:21;99964.53;;;17.26;100.00
51460;BME280;37534;39.772;2.718;2024-03-29T05:27:47;99962.88;;;17.25;100.00
51460;BME280;37534;39.772;2.718;2024-03-29T05:30:13;99946.78;;;17.06;100.00
51460;BME280;37534;39.772;2.718;2024-03-29T05:32:39;99966.28;;;17.13;100.00
51460;BME280;37534;39.772;2.718;2024-03-29T05:35:05;99948.81;;;16.88;100.00
51460;BME280;37534;39.772;2.718;2024-03-29T05:37:30;99953.88;;;17.04;100.00
51460;BME280;37534;39.772;2.718;2024-03-29T05:39:56;99937.16;;;16.94;100.00
51460;BME280;37534;39.772;2.718;2024-03-29T05:42:29;99972.25;;;17.15;100.00
51460;BME280;37534;39.772;2.718;2024-03-29T05:44:55;99962.84;;;17.13;100.00
51460;BME280;37534;39.772;2.718;2024-03-29T05:47:21;99945.50;;;16.99;100.00
51460;BME280;37534;39.772;2.718;2024-03-29T05:49:48;99979.41;;;17.12;100.00
51460;BME280;37534;39.772;2.718;2024-03-29T05:52:13;99888.47;;;16.67;100.00
51460;BME280;37534;39.772;2.718;2024-03-29T05:54:43;99979.50;;;17.10;100.00
51460;BME280;37534;39.772;2.718;2024-03-29T05:57:09;99955.28;;;16.95;100.00
51460;BME280;37534;39.772;2.718;2024-03-29T05:59:35;99946.78;;;17.06;100.00
51460;BME280;37534;39.772;2.718;2024-03-29T06:02:01;99941.56;;;17.06;100.00
51460;BME280;37534;39.772;2.718;2024-03-29T06:04:27;99978.84;;;17.34;100.00
51460;BME280;37534;39.772;2.718;2024-03-29T06:06:59;99969.34;;;17.20;100.00
51460;BME280;37534;39.772;2.718;2024-03-29T06:09:25;99984.56;;;17.26;100.00
51460;BME280;37534;39.772;2.718;2024-03-29T06:11:51;99977.03;;;17.21;100.00
51460;BME280;37534;39.772;2.718;2024-03-29T06:14:17;99972.59;;;17.23;99.82
51460;BME280;37534;39.772;2.718;2024-03-29T06:17:00;100027.81;;;17.43;100.00
51460;BME280;37534;39.772;2.718;2024-03-29T06:19:44;100022.16;;;17.36;99.74
51460;BME280;37534;39.772;2.718;2024-03-29T06:22:10;100019.75;;;17.46;100.00
51460;BME280;37534;39.772;2.718;2024-03-29T06:24:36;100032.88;;;17.44;100.00
51460;BME280;37534;39.772;2.718;2024-03-29T06:27:04;100023.16;;;17.34;100.00
51460;BME280;37534;39.772;2.718;2024-03-29T06:29:32;99944.13;;;16.79;100.00
51460;BME280;37534;39.772;2.718;2024-03-29T06:32:01;100010.59;;;17.13;100.00
51460;BME280;37534;39.772;2.718;2024-03-29T06:34:30;100020.38;;;17.09;100.00
51460;BME280;37534;39.772;2.718;2024-03-29T06:36:56;100015.78;;;17.00;100.00
51460;BME280;37534;39.772;2.718;2024-03-29T06:39:22;100036.47;;;17.16;100.00
51460;BME280;37534;39.772;2.718;2024-03-29T06:41:48;100003.13;;;16.94;100.00
51460;BME280;37534;39.772;2.718;2024-03-29T06:44:13;100063.81;;;17.23;100.00
51460;BME280;37534;39.772;2.718;2024-03-29T06:46:39;100046.50;;;17.22;100.00
51460;BME280;37534;39.772;2.718;2024-03-29T06:49:05;100058.38;;;17.26;100.00
51460;BME280;37534;39.772;2.718;2024-03-29T06:51:30;100016.25;;;17.20;100.00
51460;BME280;37534;39.772;2.718;2024-03-29T06:53:56;100026.91;;;17.29;100.00
51460;BME280;37534;39.772;2.718;2024-03-29T06:56:22;100039.91;;;17.57;100.00
51460;BME280;37534;39.772;2.718;2024-03-29T06:58:47;100021.69;;;17.70;100.00
51460;BME280;37534;39.772;2.718;2024-03-29T07:01:13;100024.66;;;18.03;99.49
51460;BME280;37534;39.772;2.718;2024-03-29T07:03:39;99990.91;;;18.26;95.79
51460;BME280;37534;39.772;2.718;2024-03-29T07:06:05;100016.78;;;19.16;91.49
51460;BME280;37534;39.772;2.718;2024-03-29T07:08:30;99998.59;;;19.50;86.89
51460;BME280;37534;39.772;2.718;2024-03-29T07:11:00;100002.84;;;19.75;83.27
51460;BME280;37534;39.772;2.718;2024-03-29T07:13:29;99978.97;;;19.91;79.11
51460;BME280;37534;39.772;2.718;2024-03-29T07:15:55;100016.91;;;19.97;80.37
51460;BME280;37534;39.772;2.718;2024-03-29T07:18:21;99988.47;;;19.81;80.90
51460;BME280;37534;39.772;2.718;2024-03-29T07:20:46;100003.13;;;19.94;81.70
51460;BME280;37534;39.772;2.718;2024-03-29T07:23:12;100006.22;;;20.11;81.91
51460;BME280;37534;39.772;2.718;2024-03-29T07:25:39;100004.09;;;20.61;82.87
51460;BME280;37534;39.772;2.718;2024-03-29T07:28:05;100019.53;;;21.19;76.59
51460;BME280;37534;39.772;2.718;2024-03-29T07:30:30;99998.00;;;21.04;73.51
51460;BME280;37534;39.772;2.718;2024-03-29T07:32:56;100008.59;;;21.47;73.02
51460;BME280;37534;39.772;2.718;2024-03-29T07:35:22;99996.50;;;22.07;70.61
51460;BME280;37534;39.772;2.718;2024-03-29T07:37:47;99977.38;;;21.95;66.21
51460;BME280;37534;39.772;2.718;2024-03-29T07:40:15;100005.59;;;21.72;67.80
51460;BME280;37534;39.772;2.718;2024-03-29T07:42:41;99977.13;;;21.47;71.37
51460;BME280;37534;39.772;2.718;2024-03-29T07:45:07;99987.09;;;21.53;73.60
51460;BME280;37534;39.772;2.718;2024-03-29T07:47:33;99986.31;;;21.62;72.86
51460;BME280;37534;39.772;2.718;2024-03-29T07:49:58;99982.50;;;21.66;68.25
51460;BME280;37534;39.772;2.718;2024-03-29T07:52:24;99997.91;;;21.59;71.75
51460;BME280;37534;39.772;2.718;2024-03-29T07:54:50;100000.59;;;21.48;73.78
51460;BME280;37534;39.772;2.718;2024-03-29T07:57:16;100002.38;;;21.48;75.17
51460;BME280;37534;39.772;2.718;2024-03-29T07:59:42;100003.41;;;21.24;77.26
51460;BME280;37534;39.772;2.718;2024-03-29T08:02:08;99989.69;;;20.99;76.85
51460;BME280;37534;39.772;2.718;2024-03-29T08:04:34;100008.25;;;21.07;76.56
51460;BME280;37534;39.772;2.718;2024-03-29T08:07:00;99990.59;;;21.10;76.93
51460;BME280;37534;39.772;2.718;2024-03-29T08:09:25;100006.34;;;21.10;77.60
51460;BME280;37534;39.772;2.718;2024-03-29T08:11:52;100004.06;;;20.73;78.55
51460;BME280;37534;39.772;2.718;2024-03-29T08:14:18;99982.66;;;20.33;80.49
51460;BME280;37534;39.772;2.718;2024-03-29T08:16:44;100011.72;;;20.64;79.80
51460;BME280;37534;39.772;2.718;2024-03-29T08:19:09;99993.09;;;20.56;80.70
51460;BME280;37534;39.772;2.718;2024-03-29T08:21:38;99994.63;;;20.81;80.45
51460;BME280;37534;39.772;2.718;2024-03-29T08:24:04;99998.03;;;21.58;77.63
51460;BME280;37534;39.772;2.718;2024-03-29T08:26:33;99998.75;;;22.52;72.19
51460;BME280;37534;39.772;2.718;2024-03-29T08:28:59;99992.06;;;22.98;68.41
51460;BME280;37534;39.772;2.718;2024-03-29T08:31:25;99988.66;;;23.27;64.49
51460;BME280;37534;39.772;2.718;2024-03-29T08:33:51;99973.69;;;23.28;63.66
51460;BME280;37534;39.772;2.718;2024-03-29T08:36:17;99974.53;;;23.95;60.21
51460;BME280;37534;39.772;2.718;2024-03-29T08:38:43;99972.84;;;24.49;57.47
51460;BME280;37534;39.772;2.718;2024-03-29T08:41:10;99974.00;;;24.93;54.94
51460;BME280;37534;39.772;2.718;2024-03-29T08:43:36;99989.53;;;25.84;51.80
51460;BME280;37534;39.772;2.718;2024-03-29T08:46:02;99978.63;;;25.79;49.57
51460;BME280;37534;39.772;2.718;2024-03-29T08:48:27;99972.97;;;26.00;49.35
51460;BME280;37534;39.772;2.718;2024-03-29T08:50:53;99988.91;;;26.16;50.23
51460;BME280;37534;39.772;2.718;2024-03-29T08:53:19;99981.78;;;26.60;48.38
51460;BME280;37534;39.772;2.718;2024-03-29T08:55:47;99987.69;;;26.03;49.99
51460;BME280;37534;39.772;2.718;2024-03-29T08:58:13;99983.16;;;25.69;50.74
51460;BME280;37534;39.772;2.718;2024-03-29T09:00:40;99986.72;;;25.51;50.96
51460;BME280;37534;39.772;2.718;2024-03-29T09:03:05;99959.19;;;25.18;53.20
51460;BME280;37534;39.772;2.718;2024-03-29T09:05:31;99978.88;;;25.68;52.45
51460;BME280;37534;39.772;2.718;2024-03-29T09:07:57;99984.38;;;24.76;55.42
51460;BME280;37534;39.772;2.718;2024-03-29T09:10:23;99966.94;;;24.20;57.41
51460;BME280;37534;39.772;2.718;2024-03-29T09:12:52;99975.09;;;23.89;58.82
51460;BME280;37534;39.772;2.718;2024-03-29T09:15:18;99973.75;;;24.40;55.46
51460;BME280;37534;39.772;2.718;2024-03-29T09:17:44;99974.81;;;24.93;54.52
51460;BME280;37534;39.772;2.718;2024-03-29T09:20:10;99948.34;;;25.03;52.54
51460;BME280;37534;39.772;2.718;2024-03-29T09:22:36;99958.16;;;25.81;49.24
51460;BME280;37534;39.772;2.718;2024-03-29T09:25:03;99951.53;;;25.51;47.71
51460;BME280;37534;39.772;2.718;2024-03-29T09:27:29;99947.63;;;25.37;46.72
51460;BME280;37534;39.772;2.718;2024-03-29T09:29:55;99935.28;;;25.64;46.38
51460;BME280;37534;39.772;2.718;2024-03-29T09:32:24;99943.44;;;26.05;46.29
51460;BME280;37534;39.772;2.718;2024-03-29T09:34:50;99939.13;;;26.54;42.83
51460;BME280;37534;39.772;2.718;2024-03-29T09:37:15;99927.97;;;26.34;43.30
51460;BME280;37534;39.772;2.718;2024-03-29T09:39:43;99933.63;;;26.40;43.53
51460;BME280;37534;39.772;2.718;2024-03-29T09:42:15;99911.19;;;26.60;42.30
51460;BME280;37534;39.772;2.718;2024-03-29T09:44:43;99920.00;;;26.93;40.57
51460;BME280;37534;39.772;2.718;2024-03-29T09:47:09;99894.19;;;27.20;39.01
51460;BME280;37534;39.772;2.718;2024-03-29T09:49:37;99899.00;;;26.92;40.42
51460;BME280;37534;39.772;2.718;2024-03-29T09:52:04;99896.75;;;26.38;40.61
51460;BME280;37534;39.772;2.718;2024-03-29T09:54:31;99879.28;;;27.11;38.42
51460;BME280;37534;39.772;2.718;2024-03-29T09:56:57;99877.47;;;27.28;38.83
51460;BME280;37534;39.772;2.718;2024-03-29T09:59:27;99880.09;;;26.54;38.55
51460;BME280;37534;39.772;2.718;2024-03-29T10:01:55;99872.34;;;25.93;38.72
51460;BME280;37534;39.772;2.718;2024-03-29T10:04:22;99869.78;;;25.75;38.65
51460;BME280;37534;39.772;2.718;2024-03-29T10:06:49;99862.16;;;26.15;39.67
51460;BME280;37534;39.772;2.718;2024-03-29T10:09:20;99856.41;;;26.20;36.87
51460;BME280;37534;39.772;2.718;2024-03-29T10:11:46;99846.34;;;25.38;38.00
51460;BME280;37534;39.772;2.718;2024-03-29T10:14:12;99844.41;;;25.48;39.17
51460;BME280;37534;39.772;2.718;2024-03-29T10:16:38;99840.25;;;25.37;39.44
51460;BME280;37534;39.772;2.718;2024-03-29T10:19:04;99828.50;;;25.40;39.08
51460;BME280;37534;39.772;2.718;2024-03-29T10:21:31;99836.44;;;25.74;37.78
51460;BME280;37534;39.772;2.718;2024-03-29T10:23:57;99828.59;;;25.56;38.23
51460;BME280;37534;39.772;2.718;2024-03-29T10:26:23;99816.47;;;25.80;35.67
51460;BME280;37534;39.772;2.718;2024-03-29T10:28:48;99834.06;;;26.06;36.91
51460;BME280;37534;39.772;2.718;2024-03-29T10:31:17;99828.38;;;25.84;38.33
51460;BME280;37534;39.772;2.718;2024-03-29T10:33:43;99836.25;;;25.68;38.19
51460;BME280;37534;39.772;2.718;2024-03-29T10:36:10;99854.31;;;25.89;36.50
51460;BME280;37534;39.772;2.718;2024-03-29T10:38:37;99828.47;;;25.66;35.61
51460;BME280;37534;39.772;2.718;2024-03-29T10:41:04;99841.72;;;26.25;35.39
51460;BME280;37534;39.772;2.718;2024-03-29T10:43:32;99842.88;;;26.39;37.38
51460;BME280;37534;39.772;2.718;2024-03-29T10:46:00;99836.28;;;26.43;34.75
51460;BME280;37534;39.772;2.718;2024-03-29T10:48:27;99825.84;;;26.42;34.11
51460;BME280;37534;39.772;2.718;2024-03-29T10:50:54;99809.00;;;26.10;34.22
51460;BME280;37534;39.772;2.718;2024-03-29T10:53:22;99830.41;;;25.98;32.90
51460;BME280;37534;39.772;2.718;2024-03-29T10:55:50;99816.91;;;26.18;33.75
51460;BME280;37534;39.772;2.718;2024-03-29T10:58:19;99806.25;;;25.85;33.38
51460;BME280;37534;39.772;2.718;2024-03-29T11:00:53;99801.41;;;26.40;32.17
51460;BME280;37534;39.772;2.718;2024-03-29T11:03:49;99811.34;;;26.70;30.31
51460;BME280;37534;39.772;2.718;2024-03-29T11:06:17;99795.13;;;26.41;29.49
51460;BME280;37534;39.772;2.718;2024-03-29T11:08:47;99805.53;;;26.34;30.50
51460;BME280;37534;39.772;2.718;2024-03-29T11:11:15;99781.88;;;26.32;30.27
51460;BME280;37534;39.772;2.718;2024-03-29T11:13:49;99780.06;;;26.16;30.56
51460;BME280;37534;39.772;2.718;2024-03-29T11:16:18;99773.97;;;26.57;30.36
51460;BME280;37534;39.772;2.718;2024-03-29T11:18:46;99770.00;;;26.28;28.29
51460;BME280;37534;39.772;2.718;2024-03-29T11:21:13;99762.75;;;26.39;29.57
51460;BME280;37534;39.772;2.718;2024-03-29T11:23:48;99777.28;;;26.51;29.27
51460;BME280;37534;39.772;2.718;2024-03-29T11:26:14;99758.78;;;26.26;28.91
51460;BME280;37534;39.772;2.718;2024-03-29T11:28:40;99754.28;;;26.43;30.68
51460;BME280;37534;39.772;2.718;2024-03-29T11:31:08;99753.06;;;27.03;30.43
51460;BME280;37534;39.772;2.718;2024-03-29T11:36:17;99743.06;;;27.93;28.55
51460;BME280;37534;39.772;2.718;2024-03-29T11:38:45;99750.63;;;28.27;28.88
51460;BME280;37534;39.772;2.718;2024-03-29T11:41:15;99733.22;;;28.24;28.61
51460;BME280;37534;39.772;2.718;2024-03-29T11:43:42;99740.88;;;28.19;28.79
51460;BME280;37534;39.772;2.718;2024-03-29T11:46:13;99727.13;;;28.39;28.45
51460;BME280;37534;39.772;2.718;2024-03-29T11:48:39;99724.22;;;27.87;27.77
51460;BME280;37534;39.772;2.718;2024-03-29T11:51:10;99733.41;;;28.00;28.04
51460;BME280;37534;39.772;2.718;2024-03-29T11:53:37;99715.84;;;27.44;27.47
51460;BME280;37534;39.772;2.718;2024-03-29T11:56:04;99732.69;;;27.04;28.60
51460;BME280;37534;39.772;2.718;2024-03-29T11:58:31;99739.34;;;27.47;28.80
51460;BME280;37534;39.772;2.718;2024-03-29T12:00:58;99724.91;;;28.28;27.90
51460;BME280;37534;39.772;2.718;2024-03-29T12:03:31;99725.59;;;28.44;27.44
51460;BME280;37534;39.772;2.718;2024-03-29T12:05:58;99718.78;;;28.27;26.50
51460;BME280;37534;39.772;2.718;2024-03-29T12:08:25;99734.63;;;27.89;27.41
51460;BME280;37534;39.772;2.718;2024-03-29T12:10:53;99711.91;;;27.40;25.60
51460;BME280;37534;39.772;2.718;2024-03-29T12:13:19;99703.00;;;27.87;26.48
51460;BME280;37534;39.772;2.718;2024-03-29T12:15:45;99692.22;;;28.12;26.47
51460;BME280;37534;39.772;2.718;2024-03-29T12:18:10;99691.81;;;28.38;26.46
51460;BME280;37534;39.772;2.718;2024-03-29T12:20:38;99705.88;;;28.62;23.94
51460;BME280;37534;39.772;2.718;2024-03-29T12:23:08;99701.41;;;28.92;24.68
51460;BME280;37534;39.772;2.718;2024-03-29T12:25:37;99691.16;;;29.19;24.44
51460;BME280;37534;39.772;2.718;2024-03-29T12:28:03;99688.75;;;29.24;24.02
51460;BME280;37534;39.772;2.718;2024-03-29T12:30:29;99679.94;;;28.49;23.31
51460;BME280;37534;39.772;2.718;2024-03-29T12:33:05;99677.19;;;27.81;23.77
51460;BME280;37534;39.772;2.718;2024-03-29T12:35:35;99660.50;;;28.04;23.85
51460;BME280;37534;39.772;2.718;2024-03-29T12:38:03;99664.00;;;27.50;23.45
51460;BME280;37534;39.772;2.718;2024-03-29T12:40:30;99670.75;;;28.07;24.04
51460;BME280;37534;39.772;2.718;2024-03-29T12:43:01;99666.44;;;27.83;23.98
51460;BME280;37534;39.772;2.718;2024-03-29T12:45:27;99643.94;;;27.24;22.68
51460;BME280;37534;39.772;2.718;2024-03-29T12:47:53;99657.75;;;27.43;23.55
51460;BME280;37534;39.772;2.718;2024-03-29T12:50:30;99632.44;;;27.40;23.01